Indian Mills, New Jersey
Current Conditions -  °F | °C
As of 4:54 AM on Sunday 21 Dec 2014 (Local Time) from KVAY Reporting Station
Overcast Overcast  
Wind Chill: 30°   Ceiling: 3400
Heat Index: 30°   Visibility: 10mi
Dew Point: 24°   Wind: 0mph
Humidity: 79%   Direction: NA
Pressure: 30.3"   Gusts: NA
Location:  39.7955°N, 74.6301°W
Report Text: KVAY 210954Z AUTO 00000KT 10SM BKN034 OVC120 M01/M04 A3030 RMK AO2 SLP259 T10111044
Loading
Personal Weather Stations






























Interactive Weather Map New forecast layout! Learn more

10-Day Weather Forecast

Advertisements
Track Severe Weather on mobile